Time;durP1;ratioP1;P1;durP2;ratioP2;P2;SDS_P1;SDS_P2;PMS_P1;PMS_P2;Temp;Humidity;BMP_temperature;BMP_pressure;BME280_temperature;BME280_humidity;BME280_pressure;Samples;Min_cycle;Max_cycle;Signal;HPM_P1;HPM_P2
2023/10/01 00:00:46;;;;;;;51.33;48.30;;;15.20;91.20;;;;;;4986088;28;20284;-69
2023/10/01 00:03:16;;;;;;;41.77;38.70;;;15.20;91.60;;;;;;5006991;28;20284;-69
2023/10/01 00:05:42;;;;;;;60.93;57.30;;;15.10;91.70;;;;;;5007523;28;20840;-69
2023/10/01 00:08:13;;;;;;;63.53;59.67;;;15.10;91.80;;;;;;5009244;28;20371;-69
2023/10/01 00:10:41;;;;;;;60.43;56.50;;;15.10;91.70;;;;;;5004096;28;20039;-70
2023/10/01 00:13:08;;;;;;;54.30;50.90;;;15.10;91.50;;;;;;5003102;28;20371;-70
2023/10/01 00:15:33;;;;;;;63.80;59.93;;;15.10;91.40;;;;;;4992205;28;20653;-70
2023/10/01 00:17:59;;;;;;;62.63;58.77;;;15.10;91.50;;;;;;5005728;28;20291;-70
2023/10/01 00:20:29;;;;;;;43.67;40.77;;;15.00;91.30;;;;;;5003878;28;20132;-70
2023/10/01 00:23:02;;;;;;;48.20;45.30;;;15.00;91.40;;;;;;4998648;28;20414;-70
2023/10/01 00:25:31;;;;;;;56.70;53.43;;;15.00;91.80;;;;;;5007184;28;20292;-70
2023/10/01 00:28:00;;;;;;;60.43;56.63;;;15.00;91.80;;;;;;5006762;28;20338;-70
2023/10/01 00:30:31;;;;;;;46.00;43.10;;;15.00;91.80;;;;;;5010722;28;20312;-70
2023/10/01 00:32:57;;;;;;;42.20;39.60;;;15.00;91.60;;;;;;5009072;28;20313;-70
2023/10/01 00:35:25;;;;;;;58.77;55.17;;;15.00;91.70;;;;;;4992250;28;20380;-69
2023/10/01 00:37:51;;;;;;;49.40;46.20;;;15.00;91.50;;;;;;5007710;28;20281;-70
2023/10/01 00:40:18;;;;;;;46.27;43.07;;;15.00;91.40;;;;;;5000857;28;20293;-70
2023/10/01 00:42:44;;;;;;;65.37;60.67;;;15.00;91.80;;;;;;5003258;28;20604;-70
2023/10/01 00:45:11;;;;;;;34.53;31.63;;;15.00;91.70;;;;;;4998963;28;20296;-70
2023/10/01 00:47:41;;;;;;;53.60;50.27;;;15.00;91.60;;;;;;5000390;28;20289;-70
2023/10/01 00:50:21;;;;;;;55.93;52.57;;;15.00;92.00;;;;;;5005156;28;20316;-70
2023/10/01 00:52:51;;;;;;;50.20;47.03;;;14.90;92.00;;;;;;5008690;28;20293;-70
2023/10/01 00:55:18;;;;;;;58.43;54.87;;;14.90;91.90;;;;;;4999429;28;20601;-70
2023/10/01 00:57:44;;;;;;;42.57;39.90;;;14.90;91.90;;;;;;5008698;28;20288;-69
2023/10/01 01:00:15;;;;;;;55.27;52.20;;;14.90;91.90;;;;;;5008299;28;20714;-70
2023/10/01 01:02:56;;;;;;;47.60;44.53;;;14.90;92.20;;;;;;5003580;28;20285;-70
2023/10/01 01:05:36;;;;;;;36.43;33.83;;;14.90;92.20;;;;;;4997003;28;20304;-69
2023/10/01 01:08:28;;;;;;;52.83;49.67;;;14.80;92.50;;;;;;5002223;28;20288;-69
2023/10/01 01:10:54;;;;;;;36.90;34.03;;;14.80;92.40;;;;;;5006393;28;20299;-69
2023/10/01 01:13:23;;;;;;;35.67;33.00;;;14.80;92.10;;;;;;5005648;28;20383;-69
2023/10/01 01:15:51;;;;;;;59.47;55.60;;;14.80;92.00;;;;;;4995419;28;20289;-70
2023/10/01 01:18:20;;;;;;;50.43;47.40;;;14.80;92.10;;;;;;5001143;28;20283;-70
2023/10/01 01:20:48;;;;;;;51.23;47.97;;;14.70;92.10;;;;;;4986608;28;20289;-70
2023/10/01 01:23:23;;;;;;;56.33;52.60;;;14.70;92.00;;;;;;5004367;28;20359;-70
2023/10/01 01:25:52;;;;;;;;;;;14.70;92.00;;;;;;5002984;28;20284;-70
2023/10/01 01:28:27;;;;;;;55.90;52.37;;;14.70;92.40;;;;;;4993950;28;20301;-70
2023/10/01 01:30:55;;;;;;;45.70;42.72;;;14.70;92.20;;;;;;5002802;28;20324;-69
2023/10/01 01:33:21;;;;;;;41.27;38.10;;;14.70;92.20;;;;;;5003749;28;20045;-69
2023/10/01 01:35:50;;;;;;;53.07;49.70;;;14.70;92.20;;;;;;5003131;28;20379;-69
2023/10/01 01:38:17;;;;;;;40.70;37.43;;;14.70;92.00;;;;;;5004352;28;20372;-69
2023/10/01 01:40:47;;;;;;;49.70;46.40;;;14.70;92.20;;;;;;5000946;28;20352;-69
2023/10/01 01:43:21;;;;;;;53.43;49.50;;;14.70;92.20;;;;;;5000418;28;20298;-69
2023/10/01 01:45:54;;;;;;;55.03;51.40;;;14.70;92.10;;;;;;5001451;28;20359;-69
2023/10/01 01:48:30;;;;;;;44.17;40.97;;;14.70;92.20;;;;;;5019856;28;20291;-69
2023/10/01 01:51:00;;;;;;;48.50;44.43;;;14.70;92.00;;;;;;5002685;28;20289;-69
2023/10/01 01:53:36;;;;;;;45.10;41.87;;;14.70;92.00;;;;;;4984624;28;20272;-70
2023/10/01 01:56:16;;;;;;;50.27;46.47;;;14.70;91.90;;;;;;4995604;28;20316;-70
2023/10/01 01:58:43;;;;;;;58.77;54.43;;;14.70;91.90;;;;;;5004459;28;20285;-70
2023/10/01 02:03:39;;;;;;;50.40;46.57;;;14.70;91.80;;;;;;5005508;28;20288;-70
2023/10/01 02:06:07;;;;;;;58.27;54.27;;;14.70;92.10;;;;;;4996382;28;20289;-70
2023/10/01 02:11:22;;;;;;;52.07;48.70;;;14.70;91.80;;;;;;5003318;28;20295;-70
2023/10/01 02:13:51;;;;;;;30.70;28.03;;;14.70;91.90;;;;;;4992085;28;20304;-70
2023/10/01 02:16:37;;;;;;;58.37;54.63;;;14.70;91.80;;;;;;4984304;28;20430;-70
2023/10/01 02:19:21;;;;;;;53.00;48.93;;;14.70;91.80;;;;;;4993915;28;20305;-69
2023/10/01 02:21:49;;;;;;;61.80;57.60;;;14.70;91.90;;;;;;4998149;28;20289;-70
2023/10/01 02:24:23;;;;;;;56.23;52.53;;;14.70;91.90;;;;;;5000876;28;20285;-70
2023/10/01 02:26:53;;;;;;;57.03;53.27;;;14.70;92.10;;;;;;5006154;28;20285;-70
2023/10/01 02:29:32;;;;;;;47.63;44.00;;;14.60;92.10;;;;;;5007279;28;20672;-70
2023/10/01 02:31:58;;;;;;;56.17;52.10;;;14.60;92.20;;;;;;4987402;28;21101;-70
2023/10/01 02:34:26;;;;;;;59.73;55.60;;;14.60;92.10;;;;;;5000992;28;20293;-69
2023/10/01 02:36:51;;;;;;;62.00;57.60;;;14.60;92.20;;;;;;4999449;28;20668;-69
2023/10/01 02:39:21;;;;;;;53.30;49.27;;;14.60;92.50;;;;;;5008459;28;20311;-69
2023/10/01 02:44:35;;;;;;;54.63;50.90;;;14.60;92.40;;;;;;4997305;28;20359;-69
2023/10/01 02:47:08;;;;;;;56.03;52.07;;;14.60;92.40;;;;;;5004776;28;20636;-69
2023/10/01 02:49:35;;;;;;;53.40;49.60;;;14.70;92.60;;;;;;4980687;28;20338;-69
2023/10/01 02:52:03;;;;;;;67.23;62.70;;;14.70;92.80;;;;;;4995210;28;20752;-69
2023/10/01 02:54:29;;;;;;;60.40;56.47;;;14.70;92.70;;;;;;5000981;28;20709;-69
2023/10/01 02:57:13;;;;;;;51.00;47.37;;;14.70;92.70;;;;;;5006304;28;20328;-70
2023/10/01 03:02:31;;;;;;;53.57;49.30;;;14.70;92.40;;;;;;4994920;28;20299;-69
2023/10/01 03:05:07;;;;;;;52.63;48.60;;;14.70;92.80;;;;;;5006741;28;21124;-70
2023/10/01 03:07:38;;;;;;;39.10;36.00;;;14.70;92.70;;;;;;5015874;28;20285;-70
2023/10/01 03:10:12;;;;;;;63.17;58.97;;;14.70;92.70;;;;;;5004209;28;20314;-70
2023/10/01 03:12:42;;;;;;;48.13;44.05;;;14.70;92.60;;;;;;5011799;28;20285;-70
2023/10/01 03:17:55;;;;;;;56.70;52.93;;;14.70;92.40;;;;;;5004348;28;20281;-69
2023/10/01 03:23:05;;;;;;;58.37;54.43;;;14.70;92.70;;;;;;4998864;28;20650;-70
2023/10/01 03:25:42;;;;;;;59.80;55.80;;;14.70;93.00;;;;;;5003007;28;20289;-70
2023/10/01 03:28:25;;;;;;;71.07;66.70;;;14.70;92.70;;;;;;5007603;28;20285;-70
2023/10/01 03:31:06;;;;;;;74.60;69.97;;;14.70;92.80;;;;;;5023860;28;20298;-69
2023/10/01 03:33:39;;;;;;;39.50;35.90;;;14.70;92.50;;;;;;5001775;28;20288;-69
2023/10/01 03:36:09;;;;;;;47.03;43.47;;;14.80;92.60;;;;;;5013167;28;20280;-69
2023/10/01 03:38:47;;;;;;;55.53;51.73;;;14.80;92.70;;;;;;5020957;28;20288;-70
2023/10/01 03:41:22;;;;;;;70.87;66.27;;;14.80;92.80;;;;;;5001790;28;20281;-70
2023/10/01 03:43:56;;;;;;;58.90;54.78;;;14.80;92.70;;;;;;4998805;28;20320;-70
2023/10/01 03:51:58;;;;;;;63.77;59.67;;;14.80;93.00;;;;;;5003464;28;20285;-70
2023/10/01 03:57:17;;;;;;;59.47;55.87;;;14.80;92.90;;;;;;4998484;28;20289;-70
2023/10/01 04:00:28;;;;;;;71.23;66.87;;;14.80;92.90;;;;;;5005112;28;20325;-70
2023/10/01 04:02:47;;;;;;;61.50;57.77;;;14.80;93.00;;;;;;5004379;28;20713;-69
2023/10/01 04:05:22;;;;;;;59.90;56.20;;;14.80;93.00;;;;;;4987212;28;20316;-69
2023/10/01 04:07:53;;;;;;;74.27;69.63;;;14.80;93.00;;;;;;4999389;28;20356;-69
2023/10/01 04:10:28;;;;;;;74.93;70.67;;;14.80;92.90;;;;;;5016244;28;20344;-69
2023/10/01 04:13:11;;;;;;;;;;;14.80;92.80;;;;;;5019250;28;20397;-69
2023/10/01 04:15:41;;;;;;;61.87;57.60;;;14.90;93.30;;;;;;5015152;28;19936;-70
2023/10/01 04:18:28;;;;;;;65.23;60.97;;;14.90;93.00;;;;;;5002672;28;20443;-70
2023/10/01 04:23:36;;;;;;;166.37;158.27;;;14.90;93.10;;;;;;4995412;28;20296;-70
2023/10/01 04:26:05;;;;;;;69.83;65.47;;;14.90;93.10;;;;;;4997741;28;20342;-70
2023/10/01 04:28:44;;;;;;;73.93;69.90;;;14.90;93.30;;;;;;5001697;28;20291;-70
2023/10/01 04:31:14;;;;;;;61.53;57.97;;;14.90;93.10;;;;;;5009835;28;20350;-70
2023/10/01 04:33:42;;;;;;;60.97;56.70;;;15.00;93.50;;;;;;5009064;28;20331;-70
2023/10/01 04:36:12;;;;;;;49.53;45.97;;;15.00;93.70;;;;;;5002140;28;20331;-70
2023/10/01 04:38:41;;;;;;;46.63;43.43;;;15.00;93.50;;;;;;5004173;28;20376;-70
2023/10/01 04:41:12;;;;;;;71.53;67.57;;;15.10;93.60;;;;;;5007253;28;20285;-70
2023/10/01 04:43:42;;;;;;;58.57;55.20;;;15.10;93.60;;;;;;5007489;28;20293;-70
2023/10/01 04:46:21;;;;;;;67.93;63.63;;;15.10;93.40;;;;;;5006854;28;20807;-70
2023/10/01 04:48:50;;;;;;;71.03;66.80;;;15.20;93.30;;;;;;5007746;28;20308;-70
2023/10/01 04:51:17;;;;;;;79.43;75.13;;;15.20;93.20;;;;;;5014444;28;20331;-70
2023/10/01 04:53:46;;;;;;;71.27;67.07;;;15.20;94.00;;;;;;4999984;28;20740;-70
2023/10/01 04:56:20;;;;;;;70.03;65.67;;;15.20;94.10;;;;;;4999277;28;20324;-70
2023/10/01 04:58:51;;;;;;;104.43;99.03;;;15.20;94.40;;;;;;5000207;28;20328;-70
2023/10/01 05:01:18;;;;;;;66.43;62.33;;;15.20;94.90;;;;;;5005515;28;20276;-70
2023/10/01 05:03:44;;;;;;;123.63;117.60;;;15.20;95.10;;;;;;5009260;28;20617;-70
2023/10/01 05:06:15;;;;;;;204.93;195.90;;;15.10;95.00;;;;;;4996175;28;20875;-70
2023/10/01 05:08:42;;;;;;;205.40;196.10;;;15.10;94.90;;;;;;4999863;28;20317;-70
2023/10/01 05:11:10;;;;;;;196.77;187.60;;;15.10;96.30;;;;;;4999180;28;20304;-70
2023/10/01 05:13:47;;;;;;;163.97;155.67;;;15.10;96.00;;;;;;5012506;28;20296;-70
2023/10/01 05:16:18;;;;;;;172.57;164.70;;;15.10;95.90;;;;;;5005494;28;20272;-70
2023/10/01 05:18:46;;;;;;;164.77;156.97;;;15.10;96.20;;;;;;4997083;28;20652;-70
2023/10/01 05:21:18;;;;;;;206.60;197.17;;;15.10;96.50;;;;;;5022035;28;20292;-70
2023/10/01 05:23:45;;;;;;;178.87;170.30;;;15.00;96.40;;;;;;4998911;28;20281;-70
2023/10/01 05:26:11;;;;;;;223.13;212.30;;;15.00;96.90;;;;;;5026007;28;20706;-70
2023/10/01 05:28:42;;;;;;;209.03;199.13;;;15.00;97.60;;;;;;5009830;28;20336;-70
2023/10/01 05:31:09;;;;;;;179.17;170.57;;;15.00;97.60;;;;;;5015813;28;20300;-70
2023/10/01 05:33:38;;;;;;;234.77;224.33;;;15.00;97.50;;;;;;4991472;28;20521;-70
2023/10/01 05:36:04;;;;;;;241.17;230.23;;;15.00;97.30;;;;;;4993897;28;20290;-70
2023/10/01 05:38:35;;;;;;;262.80;250.73;;;15.00;97.60;;;;;;4991529;28;20372;-70
2023/10/01 05:41:05;;;;;;;213.73;204.03;;;15.00;98.10;;;;;;5003161;28;20853;-70
2023/10/01 05:43:37;;;;;;;212.17;202.53;;;15.00;98.20;;;;;;5006553;28;20805;-70
2023/10/01 05:46:08;;;;;;;213.23;202.97;;;14.90;98.00;;;;;;5009177;28;20281;-70
2023/10/01 05:48:44;;;;;;;163.73;156.30;;;15.00;98.30;;;;;;5001875;28;20388;-70
2023/10/01 05:51:30;;;;;;;164.80;156.90;;;15.00;98.40;;;;;;4998386;28;20654;-71
2023/10/01 05:53:56;;;;;;;186.40;177.60;;;15.00;98.30;;;;;;4998237;28;20340;-70
2023/10/01 05:56:23;;;;;;;169.30;161.70;;;15.00;98.10;;;;;;5003481;28;20277;-70
2023/10/01 05:58:50;;;;;;;183.83;175.60;;;15.00;98.10;;;;;;5015876;28;20288;-70
2023/10/01 06:01:17;;;;;;;289.47;275.20;;;15.00;98.40;;;;;;4995548;28;21850;-70
2023/10/01 06:03:44;;;;;;;275.53;263.23;;;15.00;98.50;;;;;;5002166;28;20289;-70
2023/10/01 06:06:14;;;;;;;301.87;288.90;;;15.10;99.00;;;;;;5002782;28;20292;-70
2023/10/01 06:08:46;;;;;;;274.37;262.10;;;15.10;99.00;;;;;;5001810;28;21218;-70
2023/10/01 06:11:16;;;;;;;263.23;251.27;;;15.10;99.30;;;;;;5008680;28;20324;-70
2023/10/01 06:13:51;;;;;;;276.47;263.90;;;15.10;99.20;;;;;;5001522;28;20675;-70
2023/10/01 06:16:23;;;;;;;249.40;237.63;;;15.10;99.10;;;;;;5001859;28;20356;-70
2023/10/01 06:18:50;;;;;;;295.43;281.90;;;15.10;99.60;;;;;;5015429;28;20065;-70
2023/10/01 06:21:23;;;;;;;253.97;242.37;;;15.10;99.70;;;;;;5006002;28;20312;-70
2023/10/01 06:23:49;;;;;;;278.03;265.40;;;15.10;99.70;;;;;;4994009;28;20292;-70
2023/10/01 06:26:37;;;;;;;316.97;302.23;;;15.10;99.70;;;;;;5005577;28;20311;-70
2023/10/01 06:29:05;;;;;;;264.83;252.73;;;15.20;99.50;;;;;;5006088;28;20314;-70
2023/10/01 06:34:23;;;;;;;214.52;204.77;;;15.20;99.20;;;;;;5005284;28;20364;-70
2023/10/01 06:36:57;;;;;;;255.20;243.43;;;15.30;98.90;;;;;;5008507;28;20092;-70
2023/10/01 06:39:28;;;;;;;234.60;223.97;;;15.30;98.60;;;;;;4994705;28;20296;-70
2023/10/01 06:41:53;;;;;;;280.07;267.10;;;15.30;98.50;;;;;;5005413;28;20285;-70
2023/10/01 06:44:21;;;;;;;269.70;257.47;;;15.40;98.00;;;;;;5010166;28;20300;-70
2023/10/01 06:46:48;;;;;;;288.67;276.33;;;15.40;97.60;;;;;;5003262;28;20498;-70
2023/10/01 06:49:18;;;;;;;301.57;287.63;;;15.50;97.50;;;;;;5021013;28;20308;-70
2023/10/01 06:51:44;;;;;;;280.00;267.03;;;15.50;97.50;;;;;;5010672;28;20284;-70
2023/10/01 06:54:11;;;;;;;330.13;314.57;;;15.60;97.20;;;;;;5016603;28;20285;-70
2023/10/01 06:56:43;;;;;;;323.70;308.67;;;15.60;97.20;;;;;;5005435;28;20287;-70
2023/10/01 07:01:47;;;;;;;256.40;245.13;;;15.70;96.80;;;;;;4997177;28;20371;-70
2023/10/01 07:04:17;;;;;;;352.67;336.30;;;15.70;96.80;;;;;;5005513;28;20284;-70
2023/10/01 07:06:44;;;;;;;352.90;336.90;;;15.70;96.70;;;;;;5015347;28;20321;-70
2023/10/01 07:11:59;;;;;;;;;;;15.80;96.30;;;;;;5013728;28;20277;-70
2023/10/01 07:14:45;;;;;;;324.63;310.03;;;15.80;96.20;;;;;;5013371;28;20170;-70
2023/10/01 07:17:18;;;;;;;340.07;324.87;;;15.80;96.20;;;;;;5010374;28;20769;-70
2023/10/01 07:19:59;;;;;;;333.77;318.53;;;15.90;96.10;;;;;;4989578;28;20285;-70
2023/10/01 07:22:32;;;;;;;367.10;350.67;;;15.90;96.00;;;;;;5017434;28;20849;-70
2023/10/01 07:24:59;;;;;;;336.17;320.97;;;15.90;95.90;;;;;;5012880;28;20300;-70
2023/10/01 07:27:28;;;;;;;398.03;379.67;;;16.00;96.10;;;;;;5004199;28;20280;-70
2023/10/01 07:29:54;;;;;;;407.90;389.23;;;16.00;95.80;;;;;;5004727;28;20669;-70
2023/10/01 07:32:23;;;;;;;403.30;384.37;;;16.10;95.80;;;;;;5007370;28;20284;-70
2023/10/01 07:34:55;;;;;;;403.00;384.67;;;16.10;95.80;;;;;;5004645;28;20289;-70
2023/10/01 07:37:25;;;;;;;444.53;423.53;;;16.20;95.70;;;;;;5008748;28;20293;-70
2023/10/01 07:39:55;;;;;;;398.20;379.73;;;16.30;95.70;;;;;;5002230;28;20304;-70
2023/10/01 07:42:22;;;;;;;433.43;412.90;;;16.30;95.80;;;;;;4999836;28;20367;-70
2023/10/01 07:44:49;;;;;;;446.43;425.50;;;16.40;95.50;;;;;;5009583;28;20301;-70
2023/10/01 07:47:28;;;;;;;431.70;411.47;;;16.40;95.00;;;;;;5006766;28;20303;-70
2023/10/01 07:50:12;;;;;;;446.23;424.97;;;16.40;94.60;;;;;;4998224;28;20302;-70
2023/10/01 07:52:44;;;;;;;421.40;401.90;;;16.40;94.90;;;;;;5011967;28;20773;-70
2023/10/01 07:55:35;;;;;;;407.03;387.90;;;16.40;94.90;;;;;;5009270;28;20289;-70
2023/10/01 08:01:59;;;;;;;407.33;388.43;;;16.40;95.10;;;;;;4988025;28;20301;-71
2023/10/01 08:03:55;;;;;;;394.70;376.40;;;16.50;95.20;;;;;;4992148;28;20296;-71
2023/10/01 08:06:49;;;;;;;378.37;360.90;;;16.60;95.40;;;;;;5008759;28;20768;-72
2023/10/01 08:09:12;;;;;;;407.13;387.47;;;16.70;95.50;;;;;;4999479;28;20316;-72
2023/10/01 08:14:33;;;;;;;380.50;362.15;;;16.90;94.50;;;;;;5008822;28;20301;-72
2023/10/01 08:17:00;;;;;;;;;;;17.00;93.80;;;;;;5007485;28;20506;-72
2023/10/01 08:19:41;;;;;;;368.27;351.67;;;17.20;93.40;;;;;;5014437;28;19922;-72
2023/10/01 08:22:14;;;;;;;399.27;380.83;;;17.30;93.30;;;;;;5008579;28;20784;-72
2023/10/01 08:24:45;;;;;;;428.97;408.97;;;17.50;92.30;;;;;;5011201;28;20632;-72
2023/10/01 08:27:29;;;;;;;394.60;376.27;;;17.70;92.70;;;;;;5017124;28;20292;-72
2023/10/01 08:29:59;;;;;;;396.87;378.90;;;17.90;91.00;;;;;;4998332;28;20367;-73
2023/10/01 08:32:38;;;;;;;410.33;389.50;;;18.00;90.70;;;;;;5005084;28;20281;-73
2023/10/01 08:35:08;;;;;;;342.50;326.63;;;18.10;89.90;;;;;;5007275;28;20494;-72
2023/10/01 08:37:37;;;;;;;343.33;327.80;;;18.20;89.70;;;;;;5009014;28;20030;-72
2023/10/01 08:40:13;;;;;;;332.00;316.47;;;18.30;89.40;;;;;;5002361;28;20309;-72
2023/10/01 08:42:47;;;;;;;388.13;369.80;;;18.30;89.50;;;;;;5012142;28;20058;-72
2023/10/01 08:45:17;;;;;;;444.43;420.83;;;18.40;88.90;;;;;;5004919;28;20135;-72
2023/10/01 08:47:47;;;;;;;334.70;319.53;;;18.40;89.00;;;;;;5006222;28;20450;-72
2023/10/01 08:52:55;;;;;;;395.63;377.23;;;18.40;88.10;;;;;;5013275;28;20183;-72
2023/10/01 08:55:23;;;;;;;379.43;361.60;;;18.40;88.20;;;;;;4997736;28;20089;-72
2023/10/01 08:57:55;;;;;;;441.10;420.03;;;18.40;88.30;;;;;;5002966;28;20038;-72
2023/10/01 09:00:24;;;;;;;402.27;383.63;;;18.50;88.60;;;;;;5008981;28;20072;-72
2023/10/01 09:02:51;;;;;;;523.40;489.60;;;18.50;88.30;;;;;;5007779;28;20045;-72
2023/10/01 09:05:23;;;;;;;473.17;444.50;;;18.50;87.40;;;;;;5001601;28;20045;-72
2023/10/01 09:08:14;;;;;;;364.97;347.97;;;18.50;88.00;;;;;;5001342;28;20049;-72
2023/10/01 09:10:39;;;;;;;432.10;407.73;;;18.50;87.90;;;;;;5001821;28;20054;-72
2023/10/01 09:13:08;;;;;;;507.13;478.43;;;18.60;87.80;;;;;;4997628;28;20520;-72
2023/10/01 09:15:38;;;;;;;415.57;393.80;;;18.70;87.40;;;;;;5000784;28;20453;-72
2023/10/01 09:18:20;;;;;;;411.93;392.93;;;18.80;87.50;;;;;;5024332;28;20041;-72
2023/10/01 09:23:56;;;;;;;580.43;544.70;;;18.80;85.90;;;;;;5007328;28;20053;-72
2023/10/01 09:26:53;;;;;;;473.33;448.97;;;18.80;86.10;;;;;;4998628;28;20046;-72
2023/10/01 09:29:24;;;;;;;435.03;414.60;;;18.70;86.00;;;;;;5005963;28;20101;-72
2023/10/01 09:31:52;;;;;;;431.00;410.80;;;18.60;86.70;;;;;;4985219;28;20402;-72
2023/10/01 09:34:31;;;;;;;462.80;439.70;;;18.70;87.00;;;;;;4999622;28;20046;-72
2023/10/01 09:37:03;;;;;;;366.27;349.53;;;18.80;86.20;;;;;;5002684;28;20042;-72
2023/10/01 09:39:42;;;;;;;410.23;390.30;;;18.80;86.70;;;;;;5004126;28;20049;-72
2023/10/01 09:42:28;;;;;;;394.70;375.80;;;18.80;86.00;;;;;;4999255;28;20053;-71
2023/10/01 09:45:09;;;;;;;387.53;369.90;;;18.70;86.50;;;;;;5005976;28;20080;-71
2023/10/01 09:47:35;;;;;;;399.53;381.40;;;18.60;86.80;;;;;;5008065;28;20113;-71
2023/10/01 09:50:03;;;;;;;397.17;378.40;;;18.70;87.60;;;;;;4999184;28;20049;-71
2023/10/01 09:52:48;;;;;;;332.87;317.43;;;18.70;87.70;;;;;;4991244;28;20557;-71
2023/10/01 09:55:47;;;;;;;387.55;368.92;;;18.80;88.10;;;;;;5000028;28;20041;-71
2023/10/01 09:58:10;;;;;;;376.40;358.57;;;19.00;87.80;;;;;;4996946;28;20517;-71
2023/10/01 10:00:42;;;;;;;360.10;343.65;;;19.10;87.80;;;;;;5018237;28;20057;-71
2023/10/01 10:03:12;;;;;;;373.20;356.33;;;19.30;86.60;;;;;;5003078;28;20045;-71
2023/10/01 10:05:42;;;;;;;310.80;296.17;;;19.50;86.30;;;;;;5010933;28;20068;-71
2023/10/01 10:08:15;;;;;;;592.87;550.03;;;19.60;85.30;;;;;;5019217;28;20089;-71
2023/10/01 10:10:49;;;;;;;456.60;434.27;;;19.80;83.80;;;;;;5030040;28;20061;-71
2023/10/01 10:13:36;;;;;;;368.83;351.60;;;19.90;83.80;;;;;;4996446;28;20042;-72
2023/10/01 10:19:12;;;;;;;416.70;396.73;;;20.10;82.70;;;;;;4997280;28;20042;-72
2023/10/01 10:22:16;;;;;;;420.20;399.53;;;20.20;82.00;;;;;;5013706;28;20046;-72
2023/10/01 10:24:47;;;;;;;480.17;453.03;;;20.10;81.40;;;;;;5000893;28;20054;-72
2023/10/01 10:27:36;;;;;;;476.87;452.13;;;20.10;82.40;;;;;;5010612;28;20050;-72
2023/10/01 10:30:05;;;;;;;429.10;408.40;;;20.10;81.20;;;;;;4998150;28;20317;-72
2023/10/01 10:32:42;;;;;;;461.97;439.53;;;20.10;82.10;;;;;;5001040;28;20046;-72
2023/10/01 10:35:14;;;;;;;452.90;431.70;;;20.10;82.60;;;;;;5016382;28;20121;-72
2023/10/01 10:37:44;;;;;;;477.33;454.13;;;20.10;82.20;;;;;;4992690;28;20046;-72
2023/10/01 10:43:02;;;;;;;447.77;426.13;;;19.90;81.40;;;;;;5008139;28;20506;-71
2023/10/01 10:45:42;;;;;;;341.87;325.70;;;19.90;81.90;;;;;;4981682;28;20100;-71
2023/10/01 10:48:09;;;;;;;441.30;420.00;;;19.90;82.60;;;;;;5026808;28;20050;-71
2023/10/01 10:50:53;;;;;;;494.57;465.80;;;19.90;82.60;;;;;;5007433;28;20513;-71
2023/10/01 10:53:37;;;;;;;499.27;472.52;;;19.90;81.50;;;;;;5027359;28;20076;-71
2023/10/01 10:56:06;;;;;;;424.57;402.27;;;19.90;81.50;;;;;;4993507;28;20081;-71
2023/10/01 10:59:01;;;;;;;401.27;381.43;;;19.90;81.90;;;;;;5004007;28;20042;-71
2023/10/01 11:01:43;;;;;;;332.23;317.02;;;20.10;82.40;;;;;;4988755;28;20042;-72
2023/10/01 11:04:09;;;;;;;392.20;373.77;;;20.20;81.30;;;;;;5008364;28;20041;-72
2023/10/01 11:07:01;;;;;;;487.00;462.43;;;20.30;80.90;;;;;;5005706;28;20037;-72
2023/10/01 11:09:27;;;;;;;408.93;389.77;;;20.30;80.90;;;;;;5000537;28;20442;-71
2023/10/01 11:12:19;;;;;;;408.77;389.50;;;20.40;80.50;;;;;;4999314;28;20128;-71
2023/10/01 11:14:55;;;;;;;430.33;409.67;;;20.40;79.90;;;;;;5007586;28;20096;-71
2023/10/01 11:17:22;;;;;;;604.10;558.13;;;20.50;80.20;;;;;;4996520;28;20030;-71
2023/10/01 11:19:48;;;;;;;477.10;450.83;;;20.60;78.40;;;;;;5011897;28;20522;-71
2023/10/01 11:22:14;;;;;;;435.77;414.63;;;20.60;79.20;;;;;;5002239;28;20042;-73
2023/10/01 11:24:41;;;;;;;549.47;505.60;;;20.70;79.80;;;;;;5012287;28;20042;-72
2023/10/01 11:27:17;;;;;;;434.77;414.37;;;20.90;78.50;;;;;;5004053;28;20505;-72
2023/10/01 11:30:28;;;;;;;526.57;491.33;;;21.00;78.50;;;;;;5005002;28;20057;-73
2023/10/01 11:32:58;;;;;;;440.63;413.83;;;21.10;76.50;;;;;;4998262;28;20046;-73
2023/10/01 11:35:59;;;;;;;431.50;410.73;;;21.20;76.30;;;;;;4991237;28;20129;-72
2023/10/01 11:38:26;;;;;;;429.03;408.47;;;21.30;77.10;;;;;;5003659;28;20054;-72
2023/10/01 11:41:09;;;;;;;457.03;432.67;;;21.30;75.40;;;;;;5003117;28;20042;-73
2023/10/01 11:43:42;;;;;;;517.80;486.20;;;21.30;75.50;;;;;;5012180;28;20058;-73
2023/10/01 11:46:25;;;;;;;452.17;430.43;;;21.30;75.80;;;;;;4987802;28;20524;-73
2023/10/01 11:49:06;;;;;;;429.50;409.23;;;21.20;75.60;;;;;;5021034;28;20085;-72
2023/10/01 11:51:45;;;;;;;549.97;512.97;;;21.30;75.90;;;;;;5007790;28;20037;-72
2023/10/01 11:54:12;;;;;;;580.03;535.77;;;21.20;75.50;;;;;;5014684;28;20529;-73
2023/10/01 11:56:41;;;;;;;433.57;412.07;;;21.10;75.30;;;;;;5015891;28;20036;-73
2023/10/01 11:59:17;;;;;;;530.10;497.33;;;21.10;75.90;;;;;;5010335;28;20038;-73
2023/10/01 12:01:49;;;;;;;406.83;386.47;;;21.00;75.90;;;;;;5010012;28;20115;-73
2023/10/01 12:04:43;;;;;;;463.10;438.50;;;21.00;76.60;;;;;;5018830;28;20086;-73
2023/10/01 12:07:16;;;;;;;418.37;397.03;;;21.10;76.70;;;;;;5039155;28;20049;-72
2023/10/01 12:09:50;;;;;;;525.80;494.57;;;21.20;77.00;;;;;;5007452;28;20041;-72
2023/10/01 12:12:21;;;;;;;598.15;561.60;;;21.20;75.10;;;;;;5001056;28;20073;-72
2023/10/01 12:15:33;;;;;;;519.23;492.60;;;21.30;75.30;;;;;;5012008;28;20062;-72
2023/10/01 12:17:46;;;;;;;587.33;553.45;;;21.40;75.80;;;;;;5001949;28;20045;-72
2023/10/01 12:20:30;;;;;;;538.60;511.57;;;21.50;75.00;;;;;;5001341;28;20814;-72
2023/10/01 12:23:12;;;;;;;526.67;499.37;;;21.60;74.40;;;;;;5010470;28;20387;-72
2023/10/01 12:25:46;;;;;;;611.77;572.67;;;21.70;73.20;;;;;;5007027;28;20288;-73
2023/10/01 12:28:18;;;;;;;504.98;480.05;;;21.70;74.10;;;;;;5015958;28;20045;-72
2023/10/01 12:30:57;;;;;;;583.37;552.67;;;21.80;73.60;;;;;;5002524;28;20045;-73
2023/10/01 12:33:23;;;;;;;602.97;570.90;;;21.90;74.50;;;;;;5002125;28;20101;-73
2023/10/01 12:35:49;;;;;;;565.70;536.40;;;22.00;74.70;;;;;;5007248;28;20042;-73
2023/10/01 12:40:41;;;;;;;551.17;523.07;;;22.00;72.50;;;;;;5018720;28;20042;-73
2023/10/01 12:45:52;;;;;;;530.50;502.15;;;22.20;73.30;;;;;;5008584;28;20050;-72
2023/10/01 12:48:20;;;;;;;565.73;536.43;;;22.20;72.50;;;;;;5010410;28;20049;-73
2023/10/01 12:51:07;;;;;;;570.53;541.23;;;22.20;72.50;;;;;;4990134;28;20062;-73
2023/10/01 12:53:48;;;;;;;542.13;514.43;;;22.10;73.10;;;;;;4995150;28;20117;-73
2023/10/01 12:56:16;;;;;;;584.97;554.20;;;22.30;72.70;;;;;;5008165;28;20042;-72
2023/10/01 12:58:53;;;;;;;557.57;528.70;;;22.30;72.90;;;;;;5010678;28;20042;-73
2023/10/01 13:01:31;;;;;;;568.53;539.20;;;22.40;73.00;;;;;;4992554;28;20078;-73
2023/10/01 13:06:49;;;;;;;587.43;556.77;;;22.70;72.10;;;;;;5010390;28;20049;-72
2023/10/01 13:12:06;;;;;;;557.20;528.70;;;22.60;71.10;;;;;;5017160;28;20092;-72
2023/10/01 13:14:33;;;;;;;453.57;431.20;;;22.60;72.30;;;;;;5015479;28;20053;-73
2023/10/01 13:17:01;;;;;;;614.47;581.17;;;22.70;72.00;;;;;;5006536;28;20399;-73
2023/10/01 13:19:33;;;;;;;636.03;597.27;;;22.60;71.50;;;;;;4999674;28;20386;-73
2023/10/01 13:22:06;;;;;;;532.20;504.80;;;22.60;71.40;;;;;;5000251;28;20046;-73
2023/10/01 13:24:32;;;;;;;606.13;569.43;;;22.40;71.70;;;;;;5008100;28;20038;-73
2023/10/01 13:27:11;;;;;;;498.37;472.97;;;22.40;71.50;;;;;;5009029;28;20054;-73
2023/10/01 13:29:40;;;;;;;510.43;484.90;;;22.40;72.30;;;;;;5006154;28;20046;-73
2023/10/01 13:32:15;;;;;;;460.37;437.20;;;22.10;72.30;;;;;;5004633;28;20056;-72
2023/10/01 13:35:20;;;;;;;783.30;706.40;;;22.00;72.70;;;;;;4999244;28;20076;-72
2023/10/01 13:37:48;;;;;;;514.37;486.23;;;21.80;73.40;;;;;;5006172;28;20118;-72
2023/10/01 14:08:39;;;;;;;413.17;393.43;;;21.80;73.50;;;;;;5004258;28;20533;-72
2023/10/01 14:10:22;;;;;;;497.83;471.90;;;21.60;74.70;;;;;;5003492;28;20081;-72
2023/10/01 14:12:57;;;;;;;441.90;421.20;;;21.60;74.80;;;;;;5007575;28;20069;-72
2023/10/01 14:15:24;;;;;;;494.70;470.75;;;21.60;75.00;;;;;;5003763;28;20069;-72